Time;durP1;ratioP1;P1;durP2;ratioP2;P2;SDS_P1;SDS_P2;PMS_P1;PMS_P2;Temp;Humidity;BMP_temperature;BMP_pressure;BME280_temperature;BME280_humidity;BME280_pressure;Samples;Min_cycle;Max_cycle;Signal;HPM_P1;HPM_P2
2021/05/13 00:00:08;;;;;;;3.70;1.57;;;14.60;67.30;;;;;;4426911;32;20158;-72
2021/05/13 00:02:35;;;;;;;3.60;1.30;;;14.60;67.40;;;;;;4425565;32;20165;-72
2021/05/13 00:05:04;;;;;;;2.93;1.27;;;14.50;67.40;;;;;;4426522;32;20563;-73
2021/05/13 00:07:31;;;;;;;3.77;1.33;;;14.50;67.60;;;;;;4426620;32;20154;-72
2021/05/13 00:09:58;;;;;;;3.27;1.30;;;14.50;67.60;;;;;;4426757;32;20200;-72
2021/05/13 00:12:41;;;;;;;2.43;1.43;;;14.40;68.10;;;;;;4427398;32;20488;-73
2021/05/13 00:15:17;;;;;;;3.47;1.80;;;14.30;69.30;;;;;;4427470;32;20181;-72
2021/05/13 00:17:44;;;;;;;3.50;1.40;;;14.20;68.90;;;;;;4426441;32;20500;-72
2021/05/13 00:20:15;;;;;;;3.60;1.53;;;14.20;69.40;;;;;;4426523;32;20406;-72
2021/05/13 00:22:42;;;;;;;1.93;1.40;;;14.10;69.60;;;;;;4427889;32;20143;-72
2021/05/13 00:25:10;;;;;;;3.23;1.40;;;14.10;70.30;;;;;;4426657;32;20135;-72
2021/05/13 00:27:37;;;;;;;3.30;1.40;;;14.10;70.30;;;;;;4426818;32;20279;-70
2021/05/13 00:30:05;;;;;;;5.20;1.50;;;14.00;70.30;;;;;;4425715;32;20214;-72
2021/05/13 00:32:36;;;;;;;2.90;1.30;;;13.90;70.80;;;;;;4426274;32;20170;-72
2021/05/13 00:35:05;;;;;;;4.57;1.43;;;13.90;70.90;;;;;;4427263;32;20191;-72
2021/05/13 00:37:32;;;;;;;4.07;1.50;;;13.90;70.90;;;;;;4426643;32;20453;-72
2021/05/13 00:39:59;;;;;;;4.10;1.40;;;13.90;71.30;;;;;;4426140;32;20463;-72
2021/05/13 00:42:27;;;;;;;4.73;1.57;;;13.80;71.40;;;;;;4426286;32;20193;-72
2021/05/13 00:44:54;;;;;;;3.40;1.50;;;13.70;71.70;;;;;;4426255;32;20216;-73
2021/05/13 00:47:23;;;;;;;3.77;1.60;;;13.70;72.00;;;;;;4426173;32;20150;-73
2021/05/13 00:49:50;;;;;;;2.73;1.60;;;13.70;72.30;;;;;;4426095;32;20167;-71
2021/05/13 00:52:19;;;;;;;4.20;1.60;;;13.70;72.70;;;;;;4412373;32;20154;-73
2021/05/13 00:54:47;;;;;;;1.87;1.37;;;13.60;72.90;;;;;;4425835;32;20441;-73
2021/05/13 00:57:14;;;;;;;1.90;1.50;;;13.60;73.00;;;;;;4425928;32;20146;-72
2021/05/13 00:59:45;;;;;;;4.57;1.27;;;13.50;73.40;;;;;;4425957;32;20142;-72
2021/05/13 01:02:13;;;;;;;3.07;1.40;;;13.50;73.70;;;;;;4427351;32;20158;-73
2021/05/13 01:04:40;;;;;;;2.53;1.50;;;13.40;74.20;;;;;;4411141;32;20216;-73
2021/05/13 01:07:07;;;;;;;6.83;2.03;;;13.40;74.30;;;;;;4425818;32;20234;-72
2021/05/13 01:09:34;;;;;;;5.77;1.30;;;13.30;74.30;;;;;;4424594;32;20166;-72
2021/05/13 01:12:08;;;;;;;3.47;1.93;;;13.30;74.50;;;;;;4425414;32;20222;-72
2021/05/13 01:19:46;;;;;;;3.27;1.50;;;13.20;75.00;;;;;;4424862;32;20158;-73
2021/05/13 01:22:14;;;;;;;3.00;1.30;;;13.10;75.20;;;;;;4414510;32;20154;-72
2021/05/13 01:24:41;;;;;;;3.23;1.30;;;13.10;75.40;;;;;;4425541;32;20473;-73
2021/05/13 01:27:08;;;;;;;6.27;1.60;;;13.10;75.60;;;;;;4425604;32;20178;-73
2021/05/13 01:29:36;;;;;;;3.30;1.30;;;13.10;75.80;;;;;;4425467;32;20418;-74
2021/05/13 01:32:03;;;;;;;2.00;1.43;;;13.10;76.00;;;;;;4426919;32;20155;-73
2021/05/13 01:34:30;;;;;;;2.13;1.40;;;13.10;75.80;;;;;;4425168;32;20139;-73
2021/05/13 01:36:57;;;;;;;3.70;1.30;;;13.00;76.00;;;;;;4425116;32;20142;-73
2021/05/13 01:39:25;;;;;;;4.80;1.40;;;13.10;76.00;;;;;;4426372;32;20397;-73
2021/05/13 01:41:52;;;;;;;3.90;1.50;;;13.00;76.00;;;;;;4425130;32;20155;-73
2021/05/13 01:44:19;;;;;;;2.10;1.37;;;13.00;76.40;;;;;;4425206;32;20548;-73
2021/05/13 01:46:46;;;;;;;4.43;1.40;;;13.00;76.70;;;;;;4425057;32;20382;-74
2021/05/13 01:49:19;;;;;;;2.47;1.30;;;12.90;76.80;;;;;;4425462;32;20169;-73
2021/05/13 01:51:46;;;;;;;3.83;1.50;;;12.90;77.20;;;;;;4424618;32;20371;-72
2021/05/13 01:54:17;;;;;;;4.43;1.50;;;12.90;77.20;;;;;;4425031;32;20456;-73
2021/05/13 01:56:45;;;;;;;3.87;1.50;;;12.80;77.30;;;;;;4425533;32;20165;-73
2021/05/13 01:59:12;;;;;;;2.93;1.47;;;12.80;77.60;;;;;;4425109;32;20166;-73
2021/05/13 02:01:39;;;;;;;4.63;1.43;;;12.80;77.60;;;;;;4425811;32;20210;-73
2021/05/13 02:04:06;;;;;;;3.00;1.50;;;12.70;78.10;;;;;;4424931;32;20210;-72
2021/05/13 02:06:33;;;;;;;3.77;1.53;;;12.60;78.60;;;;;;4426365;32;20189;-74
2021/05/13 02:09:00;;;;;;;2.30;1.30;;;12.60;78.90;;;;;;4425155;32;20202;-72
2021/05/13 02:11:27;;;;;;;1.80;1.40;;;12.60;79.30;;;;;;4424717;32;20157;-72
2021/05/13 02:13:54;;;;;;;1.50;1.40;;;12.50;79.90;;;;;;4424817;32;20166;-71
2021/05/13 02:16:21;;;;;;;2.50;1.50;;;12.50;80.30;;;;;;4424809;32;20192;-72
2021/05/13 02:18:48;;;;;;;3.10;1.60;;;12.30;80.60;;;;;;4424791;32;20196;-74
2021/05/13 02:21:14;;;;;;;3.60;1.20;;;12.30;80.80;;;;;;4424118;32;20150;-74
2021/05/13 02:23:42;;;;;;;2.67;1.20;;;12.30;81.20;;;;;;4424790;32;20163;-73
2021/05/13 02:26:09;;;;;;;3.13;1.50;;;12.20;81.30;;;;;;4424777;32;20146;-74
2021/05/13 02:28:36;;;;;;;3.77;1.27;;;12.20;81.60;;;;;;4424983;32;20146;-73
2021/05/13 02:31:03;;;;;;;5.27;1.30;;;12.20;81.50;;;;;;4424073;32;20166;-73
2021/05/13 02:33:30;;;;;;;1.50;1.20;;;12.20;81.50;;;;;;4426049;32;20155;-73
2021/05/13 02:35:57;;;;;;;4.20;1.37;;;12.10;82.10;;;;;;4425171;32;20146;-74
2021/05/13 02:38:24;;;;;;;2.70;1.30;;;12.10;82.10;;;;;;4425711;32;20151;-73
2021/05/13 02:40:51;;;;;;;6.30;1.60;;;12.00;82.60;;;;;;4424513;32;20174;-75
2021/05/13 02:43:18;;;;;;;1.90;1.40;;;12.00;82.90;;;;;;4424220;32;20234;-73
2021/05/13 02:45:44;;;;;;;3.50;1.50;;;12.00;83.30;;;;;;4424499;32;20179;-73
2021/05/13 02:48:12;;;;;;;3.73;1.30;;;11.90;83.50;;;;;;4425545;32;20190;-73
2021/05/13 02:50:39;;;;;;;2.63;1.60;;;11.90;84.10;;;;;;4424571;32;20174;-74
2021/05/13 02:53:05;;;;;;;4.33;1.60;;;11.90;84.50;;;;;;4424327;32;20481;-73
2021/05/13 02:55:32;;;;;;;3.63;1.60;;;11.90;85.10;;;;;;4423885;32;20189;-73
2021/05/13 02:58:01;;;;;;;3.93;1.40;;;11.80;85.40;;;;;;4423911;32;20192;-74
2021/05/13 03:00:31;;;;;;;4.03;1.80;;;11.80;86.00;;;;;;4424812;32;20376;-73
2021/05/13 03:02:58;;;;;;;2.63;1.70;;;11.80;85.90;;;;;;4424269;32;20165;-72
2021/05/13 03:05:27;;;;;;;1.80;1.50;;;11.70;86.90;;;;;;4410296;32;20171;-72
2021/05/13 03:08:01;;;;;;;4.17;1.60;;;11.70;87.00;;;;;;4422094;32;20667;-80
2021/05/13 03:10:36;;;;;;;2.77;1.50;;;11.60;87.80;;;;;;4421595;32;20190;-80
2021/05/13 03:13:04;;;;;;;3.47;1.63;;;11.60;88.40;;;;;;4422077;32;20189;-81
2021/05/13 03:15:31;;;;;;;2.13;1.53;;;11.60;88.30;;;;;;4421842;32;20208;-82
2021/05/13 03:17:58;;;;;;;3.43;1.60;;;11.60;88.50;;;;;;4421842;32;20150;-82
2021/05/13 03:20:32;;;;;;;2.30;1.57;;;11.60;88.00;;;;;;4421767;32;20192;-82
2021/05/13 03:23:00;;;;;;;3.63;1.60;;;11.60;87.70;;;;;;4423135;32;20162;-81
2021/05/13 03:25:33;;;;;;;4.50;1.87;;;11.60;88.50;;;;;;4423665;32;20537;-81
2021/05/13 03:28:09;;;;;;;3.23;1.70;;;11.60;88.20;;;;;;4424821;32;20449;-81
2021/05/13 03:30:42;;;;;;;5.00;1.90;;;11.60;88.60;;;;;;4425006;32;20162;-82
2021/05/13 03:33:09;;;;;;;3.50;1.90;;;11.70;88.40;;;;;;4427224;32;20408;-83
2021/05/13 03:35:36;;;;;;;4.63;1.80;;;11.70;87.90;;;;;;4427320;32;20150;-81
2021/05/13 03:38:04;;;;;;;5.17;1.90;;;11.70;87.90;;;;;;4427215;32;20134;-81
2021/05/13 03:40:32;;;;;;;3.27;1.80;;;11.80;88.20;;;;;;4425677;32;20167;-81
2021/05/13 03:43:00;;;;;;;3.70;1.90;;;11.80;88.20;;;;;;4426948;32;20237;-81
2021/05/13 03:45:27;;;;;;;4.80;1.60;;;11.80;88.80;;;;;;4426977;32;20151;-81
2021/05/13 03:47:54;;;;;;;5.03;1.83;;;11.80;88.80;;;;;;4427096;32;20177;-82
2021/05/13 03:50:22;;;;;;;3.37;1.70;;;11.90;89.00;;;;;;4427223;32;20151;-81
2021/05/13 03:52:49;;;;;;;2.83;1.80;;;11.80;90.10;;;;;;4427023;32;20178;-82
2021/05/13 03:55:16;;;;;;;3.07;1.70;;;11.80;90.10;;;;;;4426955;32;20351;-81
2021/05/13 03:57:43;;;;;;;3.23;1.80;;;11.90;89.70;;;;;;4426885;32;20211;-80
2021/05/13 04:00:11;;;;;;;2.40;1.70;;;11.90;89.40;;;;;;4428438;32;20153;-80
2021/05/13 04:02:39;;;;;;;2.70;1.83;;;12.00;89.10;;;;;;4426252;32;20434;-82
2021/05/13 04:05:06;;;;;;;5.20;1.80;;;12.00;89.80;;;;;;4426735;32;20146;-83
2021/05/13 04:07:36;;;;;;;3.87;1.93;;;12.10;89.50;;;;;;4427143;32;20189;-85
2021/05/13 04:10:06;;;;;;;5.10;1.87;;;12.10;89.30;;;;;;4426828;32;20211;-84
2021/05/13 04:12:38;;;;;;;4.90;1.93;;;12.10;88.90;;;;;;4428224;32;20449;-81
2021/05/13 04:15:07;;;;;;;4.67;1.87;;;12.20;88.70;;;;;;4426765;32;20162;-83
2021/05/13 04:17:34;;;;;;;4.97;1.90;;;12.20;88.70;;;;;;4426814;32;20158;-82
2021/05/13 04:20:04;;;;;;;6.87;1.97;;;12.20;88.90;;;;;;4426486;32;20457;-82
2021/05/13 04:22:31;;;;;;;5.00;2.00;;;12.30;87.70;;;;;;4426699;32;20226;-81
2021/05/13 04:24:57;;;;;;;4.83;2.00;;;12.20;88.00;;;;;;4426019;32;20434;-81
2021/05/13 04:27:24;;;;;;;5.47;1.93;;;12.20;87.80;;;;;;4426909;32;20170;-81
2021/05/13 04:29:51;;;;;;;4.80;1.90;;;12.40;88.20;;;;;;4427294;32;20170;-81
2021/05/13 04:32:18;;;;;;;5.23;2.40;;;12.50;87.50;;;;;;4427494;32;20390;-81
2021/05/13 04:34:45;;;;;;;3.57;2.00;;;12.50;86.70;;;;;;4425771;32;20423;-81
2021/05/13 04:37:12;;;;;;;3.27;1.87;;;12.50;86.00;;;;;;4426266;32;20438;-83
2021/05/13 04:39:39;;;;;;;4.00;2.00;;;12.60;85.80;;;;;;4426784;32;20194;-82
2021/05/13 04:42:06;;;;;;;3.10;1.80;;;12.70;85.60;;;;;;4425606;32;20262;-80
2021/05/13 04:44:34;;;;;;;2.37;1.90;;;12.70;85.70;;;;;;4422258;32;20197;-80
2021/05/13 04:47:18;;;;;;;2.37;1.80;;;12.70;86.60;;;;;;4426222;32;20216;-79
2021/05/13 04:49:47;;;;;;;5.50;1.77;;;12.70;86.20;;;;;;4427947;32;20465;-82
2021/05/13 04:52:14;;;;;;;2.97;1.90;;;12.80;85.70;;;;;;4426572;32;20404;-82
2021/05/13 04:54:42;;;;;;;5.83;2.00;;;12.90;86.00;;;;;;4426270;32;20186;-80
2021/05/13 04:57:08;;;;;;;4.00;1.63;;;13.00;85.20;;;;;;4425914;32;20139;-81
2021/05/13 04:59:35;;;;;;;5.47;1.77;;;13.10;84.70;;;;;;4427324;32;20146;-81
2021/05/13 05:02:02;;;;;;;4.00;1.63;;;13.20;83.60;;;;;;4427623;32;20151;-82
2021/05/13 05:04:29;;;;;;;4.23;1.60;;;13.20;84.00;;;;;;4426538;32;20238;-82
2021/05/13 05:06:56;;;;;;;3.87;1.93;;;13.30;83.30;;;;;;4425952;32;20589;-82
2021/05/13 05:09:24;;;;;;;4.90;2.10;;;13.40;84.20;;;;;;4425826;32;20177;-82
2021/05/13 05:11:51;;;;;;;6.20;2.10;;;13.50;83.10;;;;;;4425833;32;20153;-83
2021/05/13 05:14:18;;;;;;;2.93;1.90;;;13.60;82.40;;;;;;4426147;32;20204;-82
2021/05/13 05:16:45;;;;;;;3.33;2.03;;;13.70;81.60;;;;;;4425255;32;20166;-83
2021/05/13 05:19:12;;;;;;;5.87;1.70;;;13.60;81.10;;;;;;4426099;32;20143;-84
2021/05/13 05:21:39;;;;;;;3.20;1.60;;;13.70;81.50;;;;;;4425701;32;20188;-81
2021/05/13 05:24:07;;;;;;;3.00;1.73;;;13.70;81.20;;;;;;4425853;32;20253;-82
2021/05/13 05:26:34;;;;;;;5.20;1.60;;;13.80;81.10;;;;;;4425737;32;20166;-83
2021/05/13 05:29:02;;;;;;;4.43;1.60;;;13.90;81.20;;;;;;4426140;32;20450;-83
2021/05/13 05:31:29;;;;;;;3.50;1.63;;;13.90;81.30;;;;;;4425125;32;20219;-83
2021/05/13 05:33:56;;;;;;;3.93;1.73;;;13.80;80.00;;;;;;4426938;32;20189;-83
2021/05/13 05:36:26;;;;;;;3.00;1.60;;;14.00;80.40;;;;;;4425489;32;20143;-82
2021/05/13 05:38:55;;;;;;;2.23;1.57;;;13.90;77.70;;;;;;4425204;32;20139;-84
2021/05/13 05:41:22;;;;;;;4.13;1.77;;;13.90;77.90;;;;;;4426200;32;20265;-81
2021/05/13 05:43:50;;;;;;;3.87;1.47;;;14.00;78.00;;;;;;4424796;32;20174;-82
2021/05/13 05:46:16;;;;;;;3.07;1.80;;;14.10;77.20;;;;;;4425580;32;20165;-82
2021/05/13 05:48:44;;;;;;;2.77;1.70;;;14.10;76.80;;;;;;4425289;32;20139;-83
2021/05/13 05:51:11;;;;;;;5.03;1.50;;;14.20;77.20;;;;;;4426216;32;20476;-82
2021/05/13 05:53:38;;;;;;;4.10;1.70;;;14.30;77.90;;;;;;4424487;32;20166;-83
2021/05/13 05:56:05;;;;;;;5.90;1.90;;;14.40;77.30;;;;;;4425322;32;20158;-82
2021/05/13 05:58:32;;;;;;;5.70;1.73;;;14.50;77.20;;;;;;4425353;32;20173;-81
2021/05/13 06:00:59;;;;;;;7.40;2.10;;;14.60;77.50;;;;;;4424870;32;20170;-81
2021/05/13 06:03:25;;;;;;;2.90;1.60;;;14.70;78.00;;;;;;4426715;32;20143;-82
2021/05/13 06:05:53;;;;;;;4.53;1.70;;;14.80;77.30;;;;;;4425079;32;20219;-82
2021/05/13 06:08:20;;;;;;;5.20;1.50;;;14.90;76.80;;;;;;4425639;32;20192;-81
2021/05/13 06:10:46;;;;;;;4.97;1.70;;;14.90;76.30;;;;;;4425243;32;20207;-82
2021/05/13 06:13:13;;;;;;;3.03;1.93;;;15.00;77.20;;;;;;4424845;32;20142;-81
2021/05/13 06:15:41;;;;;;;4.73;1.70;;;15.00;76.50;;;;;;4425155;32;20253;-81
2021/05/13 06:18:08;;;;;;;3.50;1.70;;;15.10;75.60;;;;;;4426164;32;20336;-81
2021/05/13 06:20:35;;;;;;;5.77;1.77;;;15.20;76.00;;;;;;4424230;32;20163;-80
2021/05/13 06:23:04;;;;;;;3.13;1.53;;;15.20;75.50;;;;;;4424691;32;20263;-82
2021/05/13 06:25:31;;;;;;;4.37;1.70;;;15.20;74.10;;;;;;4424792;32;20171;-81
2021/05/13 06:27:57;;;;;;;6.50;1.60;;;15.20;73.40;;;;;;4424807;32;20143;-82
2021/05/13 06:30:25;;;;;;;2.10;1.40;;;15.30;74.50;;;;;;4424841;32;20188;-82
2021/05/13 06:32:52;;;;;;;4.80;1.80;;;15.30;73.90;;;;;;4424730;32;20421;-81
2021/05/13 06:35:20;;;;;;;4.23;1.60;;;15.40;75.30;;;;;;4424038;32;20219;-82
2021/05/13 06:37:47;;;;;;;4.20;1.50;;;15.50;74.50;;;;;;4424548;32;20162;-82
2021/05/13 06:40:15;;;;;;;3.13;1.70;;;15.70;74.20;;;;;;4424216;32;20184;-82
2021/05/13 06:42:42;;;;;;;3.57;1.50;;;15.70;73.20;;;;;;4423930;32;20233;-82
2021/05/13 06:45:12;;;;;;;3.97;1.73;;;15.80;74.30;;;;;;4409889;32;20197;-82
2021/05/13 06:47:39;;;;;;;6.23;1.73;;;15.90;73.40;;;;;;4424042;32;20167;-82
2021/05/13 06:50:07;;;;;;;2.27;1.53;;;16.00;72.50;;;;;;4424942;32;20195;-82
2021/05/13 06:52:35;;;;;;;2.97;1.60;;;16.00;73.10;;;;;;4424572;32;20228;-81
2021/05/13 06:55:04;;;;;;;4.00;1.70;;;16.00;71.90;;;;;;4425935;32;20147;-81
2021/05/13 06:57:30;;;;;;;5.53;1.90;;;16.10;71.10;;;;;;4410978;32;20516;-83
2021/05/13 06:59:57;;;;;;;9.07;2.10;;;16.10;72.10;;;;;;4426133;32;20202;-82
2021/05/13 07:02:26;;;;;;;3.10;1.60;;;16.20;73.00;;;;;;4424302;32;20142;-73
2021/05/13 07:04:53;;;;;;;3.47;1.40;;;16.40;72.20;;;;;;4424517;32;20200;-73
2021/05/13 07:07:27;;;;;;;6.63;1.50;;;16.50;71.00;;;;;;4425344;32;20394;-73
2021/05/13 07:09:54;;;;;;;5.43;1.63;;;16.60;70.60;;;;;;4424258;32;20143;-72
2021/05/13 07:12:21;;;;;;;3.87;1.50;;;16.60;70.10;;;;;;4424489;32;20178;-74
2021/05/13 07:14:48;;;;;;;1.77;1.40;;;16.60;68.90;;;;;;4424457;32;20255;-74
2021/05/13 07:17:15;;;;;;;4.43;1.30;;;16.70;68.70;;;;;;4424190;32;20165;-74
2021/05/13 07:19:42;;;;;;;5.30;1.30;;;16.70;68.70;;;;;;4425058;32;20142;-72
2021/05/13 07:22:09;;;;;;;2.43;1.50;;;16.80;67.80;;;;;;4424865;32;20138;-73
2021/05/13 07:24:36;;;;;;;5.23;1.40;;;16.90;66.80;;;;;;4424144;32;20532;-72
2021/05/13 07:27:09;;;;;;;2.83;1.37;;;17.00;68.50;;;;;;4424865;32;20158;-74
2021/05/13 07:29:37;;;;;;;4.30;1.50;;;17.00;68.40;;;;;;4422955;32;20503;-74
2021/05/13 07:32:04;;;;;;;4.37;1.33;;;17.10;67.90;;;;;;4425682;32;20189;-73
2021/05/13 07:34:32;;;;;;;2.67;1.33;;;17.20;65.40;;;;;;4424435;32;20159;-74
2021/05/13 07:36:59;;;;;;;5.40;1.40;;;17.10;65.10;;;;;;4424874;32;20191;-74
2021/05/13 07:39:26;;;;;;;3.90;1.30;;;17.20;65.50;;;;;;4424273;32;20139;-74
2021/05/13 07:41:53;;;;;;;3.20;1.37;;;17.20;64.80;;;;;;4423931;32;20503;-74
2021/05/13 07:44:21;;;;;;;4.07;1.23;;;17.20;64.00;;;;;;4423828;32;20403;-72
2021/05/13 07:46:48;;;;;;;4.40;1.17;;;17.30;64.00;;;;;;4424214;32;20215;-74
2021/05/13 07:49:16;;;;;;;3.17;1.20;;;17.30;64.60;;;;;;4423877;32;20384;-73
2021/05/13 07:51:44;;;;;;;4.57;1.23;;;17.40;64.00;;;;;;4424712;32;20158;-73
2021/05/13 07:54:11;;;;;;;1.83;1.30;;;17.40;64.20;;;;;;4423988;32;20181;-74
2021/05/13 07:56:39;;;;;;;5.10;1.10;;;17.50;63.00;;;;;;4423788;32;20200;-73
2021/05/13 07:59:06;;;;;;;3.70;1.30;;;17.50;60.90;;;;;;4423972;32;20162;-75
2021/05/13 08:01:33;;;;;;;2.03;1.20;;;17.50;64.00;;;;;;4423915;32;20210;-74
2021/05/13 08:04:00;;;;;;;3.80;1.40;;;17.70;63.80;;;;;;4424121;32;20143;-75
2021/05/13 08:06:27;;;;;;;1.77;1.13;;;17.70;62.30;;;;;;4423854;32;20165;-74
2021/05/13 08:08:54;;;;;;;1.87;1.10;;;17.60;60.10;;;;;;4424281;32;20163;-74
2021/05/13 08:11:21;;;;;;;2.50;1.30;;;17.70;61.90;;;;;;4424085;32;20201;-73
2021/05/13 08:13:48;;;;;;;2.93;1.10;;;18.50;60.10;;;;;;4423602;32;20223;-73
2021/05/13 08:16:15;;;;;;;2.90;1.37;;;19.60;57.90;;;;;;4423723;32;20400;-74
2021/05/13 08:18:43;;;;;;;3.07;1.10;;;20.30;54.00;;;;;;4426477;32;20150;-74
2021/05/13 08:21:09;;;;;;;1.63;0.97;;;20.90;52.90;;;;;;4428015;32;20165;-74
2021/05/13 08:23:36;;;;;;;2.30;1.13;;;21.50;52.00;;;;;;4425975;32;20151;-74
2021/05/13 08:26:04;;;;;;;4.77;1.30;;;21.60;50.30;;;;;;4426100;32;20253;-74
2021/05/13 08:28:31;;;;;;;2.97;1.10;;;22.00;49.60;;;;;;4426165;32;20224;-75
2021/05/13 08:30:58;;;;;;;2.65;1.10;;;22.60;48.30;;;;;;4426345;32;20161;-74
2021/05/13 08:33:25;;;;;;;2.05;1.20;;;23.00;48.00;;;;;;4427635;32;20396;-75
2021/05/13 08:35:52;;;;;;;2.75;1.25;;;23.10;47.10;;;;;;4426219;32;20441;-75
2021/05/13 08:38:18;;;;;;;2.00;1.20;;;23.40;47.40;;;;;;4427763;32;20465;-74
2021/05/13 08:40:46;;;;;;;1.92;1.10;;;23.90;46.50;;;;;;4426350;32;20139;-74
2021/05/13 08:43:27;;;;;;;2.00;1.08;;;23.90;45.60;;;;;;4426099;32;20170;-74
2021/05/13 08:45:56;;;;;;;3.67;1.30;;;24.00;45.80;;;;;;4426134;32;20202;-75
2021/05/13 08:48:28;;;;;;;2.40;1.23;;;24.40;44.50;;;;;;4426073;32;20554;-73
2021/05/13 08:50:59;;;;;;;1.55;1.20;;;24.40;42.90;;;;;;4427624;32;20170;-74
2021/05/13 08:53:29;;;;;;;2.95;1.40;;;24.30;43.30;;;;;;4411795;32;20175;-74
2021/05/13 08:55:57;;;;;;;1.77;1.30;;;24.50;43.40;;;;;;4425992;32;20488;-74
2021/05/13 08:58:24;;;;;;;3.92;1.40;;;24.40;44.10;;;;;;4426198;32;20147;-75
2021/05/13 09:00:55;;;;;;;3.33;1.40;;;24.60;44.80;;;;;;4425890;32;20178;-75
2021/05/13 09:03:37;;;;;;;2.17;1.30;;;24.80;43.10;;;;;;4426993;32;20146;-74
2021/05/13 09:06:05;;;;;;;4.65;1.52;;;24.80;42.70;;;;;;4425596;32;20177;-74
2021/05/13 09:08:33;;;;;;;3.12;1.40;;;24.30;42.70;;;;;;4424846;32;20203;-73
2021/05/13 09:11:17;;;;;;;5.60;1.40;;;24.00;43.90;;;;;;4426764;32;20191;-75
2021/05/13 09:13:58;;;;;;;5.18;1.40;;;24.00;43.60;;;;;;4426949;32;20158;-73
2021/05/13 09:16:35;;;;;;;4.28;1.20;;;23.90;44.10;;;;;;4426836;32;20205;-72
2021/05/13 09:19:26;;;;;;;3.58;1.10;;;23.70;42.40;;;;;;4425231;32;20185;-74
2021/05/13 09:22:01;;;;;;;4.57;1.30;;;23.90;44.20;;;;;;4425000;32;20151;-73
2021/05/13 09:24:50;;;;;;;4.60;1.10;;;24.30;44.60;;;;;;4426582;32;20452;-72
2021/05/13 09:27:18;;;;;;;1.20;1.00;;;24.60;41.90;;;;;;4425355;32;20147;-73
2021/05/13 09:29:47;;;;;;;1.92;1.20;;;24.80;40.10;;;;;;4424099;32;20167;-73
2021/05/13 09:32:16;;;;;;;3.17;1.30;;;24.60;40.10;;;;;;4425210;32;20204;-73
2021/05/13 09:34:45;;;;;;;1.20;1.00;;;24.50;40.60;;;;;;4425178;32;20189;-73
2021/05/13 09:37:12;;;;;;;2.90;1.27;;;24.80;41.20;;;;;;4425193;32;20236;-72
2021/05/13 09:39:49;;;;;;;1.45;1.15;;;24.80;41.10;;;;;;4426964;32;20143;-71
2021/05/13 09:42:19;;;;;;;3.15;1.00;;;24.70;41.50;;;;;;4424552;32;20181;-72
2021/05/13 09:44:48;;;;;;;1.48;1.05;;;25.00;39.30;;;;;;4425291;32;20461;-71
2021/05/13 09:47:19;;;;;;;2.10;0.98;;;25.10;39.00;;;;;;4424636;32;20151;-72
2021/05/13 09:50:10;;;;;;;2.33;0.93;;;25.10;39.80;;;;;;4424760;32;20163;-71
2021/05/13 09:52:40;;;;;;;2.03;0.90;;;25.50;38.80;;;;;;4424036;32;20146;-72
2021/05/13 09:55:19;;;;;;;3.15;1.00;;;25.90;37.60;;;;;;4424991;32;20146;-72
2021/05/13 09:57:55;;;;;;;2.58;1.02;;;26.40;35.30;;;;;;4412081;32;20143;-73
2021/05/13 10:00:40;;;;;;;2.60;1.10;;;26.70;37.80;;;;;;4424653;32;20216;-73
2021/05/13 10:03:13;;;;;;;3.97;1.30;;;26.90;37.40;;;;;;4424708;32;20146;-71
2021/05/13 10:05:43;;;;;;;2.37;1.10;;;27.10;37.70;;;;;;4424828;32;20154;-72
2021/05/13 10:08:10;;;;;;;3.35;1.20;;;26.90;36.40;;;;;;4424886;32;20357;-72
2021/05/13 10:10:38;;;;;;;1.50;1.00;;;27.50;37.50;;;;;;4424812;32;20173;-72
2021/05/13 10:13:07;;;;;;;1.42;1.00;;;27.60;34.40;;;;;;4424842;32;20361;-71
2021/05/13 10:15:37;;;;;;;2.45;0.90;;;27.70;35.10;;;;;;4424142;32;20173;-72
2021/05/13 10:18:22;;;;;;;0.93;0.93;;;27.90;34.00;;;;;;4424790;32;20159;-72
2021/05/13 10:20:57;;;;;;;3.83;1.10;;;27.80;34.80;;;;;;4425624;32;20139;-73
2021/05/13 10:23:26;;;;;;;1.98;1.10;;;27.90;35.00;;;;;;4409769;32;20185;-73
2021/05/13 10:25:52;;;;;;;3.72;1.10;;;28.30;35.70;;;;;;4423912;32;20174;-73
2021/05/13 10:28:27;;;;;;;4.45;1.27;;;28.30;34.70;;;;;;4424697;32;20155;-73
2021/05/13 10:31:03;;;;;;;2.28;1.08;;;28.70;34.10;;;;;;4426035;32;20184;-71
2021/05/13 10:33:48;;;;;;;1.35;1.08;;;28.70;33.90;;;;;;4424491;32;20142;-72
2021/05/13 10:36:21;;;;;;;2.05;1.10;;;29.20;34.40;;;;;;4424998;32;20143;-70
2021/05/13 10:38:52;;;;;;;1.45;1.00;;;29.20;32.40;;;;;;4424347;32;20139;-72
2021/05/13 10:41:28;;;;;;;4.30;1.02;;;29.20;32.40;;;;;;4425277;32;20236;-71
2021/05/13 10:43:56;;;;;;;3.95;1.20;;;29.30;32.10;;;;;;4425249;32;20130;-73
2021/05/13 10:46:27;;;;;;;1.98;1.02;;;29.30;33.40;;;;;;4424486;32;20472;-73
2021/05/13 10:49:23;;;;;;;4.28;1.10;;;29.50;32.40;;;;;;4410860;32;20147;-74
2021/05/13 10:51:55;;;;;;;1.75;1.10;;;29.90;32.10;;;;;;4424383;32;20162;-73
2021/05/13 10:54:32;;;;;;;2.53;1.00;;;30.00;31.50;;;;;;4424424;32;20268;-73
2021/05/13 10:57:13;;;;;;;1.92;1.10;;;30.10;32.50;;;;;;4424430;32;20517;-73
2021/05/13 11:00:01;;;;;;;2.45;1.20;;;30.60;31.00;;;;;;4424330;32;20127;-73
2021/05/13 11:02:46;;;;;;;2.05;1.00;;;30.90;30.90;;;;;;4411539;32;20166;-75
2021/05/13 11:05:33;;;;;;;1.62;1.00;;;30.70;30.00;;;;;;4410110;32;20438;-73
2021/05/13 11:08:25;;;;;;;1.70;1.10;;;30.70;29.50;;;;;;4424423;32;20134;-73
2021/05/13 11:10:58;;;;;;;3.33;1.17;;;30.80;29.20;;;;;;4346951;33;20512;-73
2021/05/13 11:13:39;;;;;;;2.70;1.20;;;30.90;30.30;;;;;;4347206;33;20152;-74
2021/05/13 11:16:06;;;;;;;5.65;1.30;;;30.50;30.00;;;;;;4347253;33;20140;-75
2021/05/13 11:18:34;;;;;;;4.00;1.10;;;30.50;29.90;;;;;;4346711;33;20497;-74
2021/05/13 11:21:01;;;;;;;3.00;1.02;;;30.70;29.90;;;;;;4346965;33;20220;-73
2021/05/13 11:23:31;;;;;;;4.07;1.02;;;31.20;29.80;;;;;;4346727;33;20160;-74
2021/05/13 11:26:03;;;;;;;1.58;1.33;;;31.10;29.10;;;;;;4346594;33;20140;-72
2021/05/13 11:28:39;;;;;;;1.65;1.10;;;30.80;29.70;;;;;;4347118;33;20225;-73
2021/05/13 11:31:06;;;;;;;2.75;1.15;;;30.90;29.60;;;;;;4347209;33;20145;-74
2021/05/13 11:33:54;;;;;;;2.65;1.37;;;31.30;28.90;;;;;;4347077;33;20201;-75
2021/05/13 11:36:26;;;;;;;1.27;1.02;;;31.00;29.50;;;;;;4347301;33;20175;-74
2021/05/13 11:38:56;;;;;;;1.98;1.15;;;31.00;30.10;;;;;;4348477;33;20168;-74
2021/05/13 11:41:24;;;;;;;5.35;1.20;;;31.80;30.10;;;;;;4347640;33;20580;-75
2021/05/13 11:43:51;;;;;;;2.95;1.30;;;31.40;29.00;;;;;;4346487;33;20476;-73
2021/05/13 11:46:24;;;;;;;2.37;1.10;;;31.50;28.40;;;;;;4346461;33;20201;-76
2021/05/13 11:48:52;;;;;;;2.62;1.10;;;31.70;29.30;;;;;;4400769;32;20144;-73
2021/05/13 11:51:26;;;;;;;2.92;1.20;;;32.00;29.00;;;;;;4408745;32;20165;-74
2021/05/13 11:53:57;;;;;;;6.10;1.12;;;32.00;29.80;;;;;;4411058;32;20163;-73
2021/05/13 11:56:27;;;;;;;2.87;1.00;;;32.60;30.00;;;;;;4411563;32;20376;-73
2021/05/13 11:59:02;;;;;;;3.45;1.17;;;32.70;28.80;;;;;;4411220;32;20135;-73
2021/05/13 12:01:31;;;;;;;1.70;1.00;;;32.70;28.30;;;;;;4411315;32;20135;-73
2021/05/13 12:04:07;;;;;;;3.78;1.25;;;33.00;28.20;;;;;;4411304;32;20183;-75
2021/05/13 12:06:57;;;;;;;2.83;1.20;;;33.20;27.70;;;;;;4412958;32;20153;-73
2021/05/13 12:09:27;;;;;;;3.70;1.20;;;33.50;28.10;;;;;;4411676;32;20143;-73
2021/05/13 12:12:00;;;;;;;2.62;1.40;;;33.30;27.70;;;;;;4411650;32;20197;-72
2021/05/13 12:14:31;;;;;;;2.25;1.02;;;33.00;27.50;;;;;;4412037;32;20174;-72
2021/05/13 12:17:00;;;;;;;3.58;1.20;;;33.10;27.60;;;;;;4397940;32;20143;-73
2021/05/13 12:19:29;;;;;;;2.70;1.20;;;33.10;28.00;;;;;;4411511;32;20130;-73
2021/05/13 12:22:01;;;;;;;4.30;1.20;;;33.30;27.50;;;;;;4411257;32;20184;-73
2021/05/13 12:24:28;;;;;;;3.60;1.40;;;33.50;27.80;;;;;;4412774;32;20139;-71
2021/05/13 12:26:55;;;;;;;2.62;1.40;;;33.60;27.80;;;;;;4411115;32;20153;-73
2021/05/13 12:29:23;;;;;;;2.37;1.10;;;33.70;26.70;;;;;;4410958;32;20453;-73
2021/05/13 12:31:50;;;;;;;2.53;1.00;;;34.00;26.80;;;;;;4423459;32;20434;-73
2021/05/13 12:34:32;;;;;;;2.42;0.75;;;33.70;25.40;;;;;;4426124;32;22437;-75
2021/05/13 12:37:00;;;;;;;3.33;1.17;;;33.70;25.40;;;;;;4425966;32;20387;-73
2021/05/13 12:39:39;;;;;;;2.15;1.17;;;33.50;27.30;;;;;;4426293;32;20170;-73
2021/05/13 12:42:29;;;;;;;3.03;1.33;;;33.80;26.80;;;;;;4426177;32;20163;-73
2021/05/13 12:45:40;;;;;;;2.28;1.10;;;33.60;27.40;;;;;;4426015;32;20155;-72
2021/05/13 12:48:07;;;;;;;4.28;1.27;;;33.70;27.10;;;;;;4348731;33;20182;-73
2021/05/13 12:50:34;;;;;;;1.75;1.17;;;33.70;26.90;;;;;;4348991;33;20531;-73
2021/05/13 12:53:28;;;;;;;5.03;1.60;;;33.80;26.20;;;;;;4348620;33;20148;-73
2021/05/13 12:55:55;;;;;;;2.85;1.20;;;33.90;26.00;;;;;;4349576;33;20156;-73
2021/05/13 12:58:27;;;;;;;4.35;1.20;;;34.30;26.00;;;;;;4347979;33;20148;-73
2021/05/13 13:00:57;;;;;;;5.93;1.10;;;34.50;25.30;;;;;;4349223;33;20255;-73
2021/05/13 13:03:28;;;;;;;3.95;1.15;;;34.60;25.60;;;;;;4347768;33;20211;-73
2021/05/13 13:06:13;;;;;;;3.55;1.08;;;34.70;25.60;;;;;;4347546;33;20148;-73